Time;durP1;ratioP1;P1;durP2;ratioP2;P2;SDS_P1;SDS_P2;PMS_P1;PMS_P2;Temp;Humidity;BMP_temperature;BMP_pressure;BME280_temperature;BME280_humidity;BME280_pressure;Samples;Min_cycle;Max_cycle;Signal;HPM_P1;HPM_P2
2021/12/31 00:00:48;;;;;;;4.37;1.90;;;19.00;64.70;20.10;101141.00;;;;5046782;28;20197;-40
2021/12/31 00:03:16;;;;;;;3.13;1.77;;;19.00;64.70;20.10;101139.00;;;;5047030;28;20180;-39
2021/12/31 00:05:41;;;;;;;3.53;2.00;;;19.00;64.70;20.10;101143.00;;;;5047614;28;20277;-40
2021/12/31 00:08:07;;;;;;;3.07;1.87;;;19.00;64.80;20.10;101147.00;;;;5046999;28;20185;-39
2021/12/31 00:10:33;;;;;;;2.03;1.80;;;19.00;64.70;20.10;101134.00;;;;5046733;28;20546;-39
2021/12/31 00:12:58;;;;;;;3.17;1.80;;;19.00;64.70;20.00;101138.00;;;;5061138;28;20170;-40
2021/12/31 00:15:24;;;;;;;2.20;1.87;;;19.00;64.60;20.00;101134.00;;;;5047441;28;20352;-40
2021/12/31 00:17:50;;;;;;;3.53;1.90;;;19.00;64.70;19.80;101137.00;;;;5046977;28;20702;-41
2021/12/31 00:20:19;;;;;;;3.67;2.00;;;19.00;64.60;20.00;101123.00;;;;5052165;28;20476;-41
2021/12/31 00:23:01;;;;;;;2.10;1.80;;;19.00;64.70;20.00;101123.00;;;;5048851;28;20174;-40
2021/12/31 00:25:27;;;;;;;2.23;1.90;;;19.00;64.80;20.00;101123.00;;;;5046853;28;20201;-40
2021/12/31 00:27:52;;;;;;;2.30;1.90;;;19.00;64.70;20.00;101116.00;;;;5046816;28;20178;-41
2021/12/31 00:30:18;;;;;;;2.30;1.70;;;18.90;64.70;20.00;101122.00;;;;5046121;28;20522;-40
2021/12/31 00:32:44;;;;;;;2.30;1.80;;;19.00;64.80;20.00;101121.00;;;;5046955;28;20650;-41
2021/12/31 00:35:10;;;;;;;2.70;1.67;;;19.00;64.90;20.00;101123.00;;;;5046238;28;20181;-41
2021/12/31 00:37:37;;;;;;;1.83;1.40;;;19.00;64.80;20.00;101133.00;;;;5046282;28;20202;-41
2021/12/31 00:40:07;;;;;;;2.43;1.67;;;18.90;64.70;20.00;101129.00;;;;5046519;28;20201;-41
2021/12/31 00:42:33;;;;;;;2.70;1.63;;;18.90;64.70;20.00;101124.00;;;;5046464;28;20178;-40
2021/12/31 00:44:58;;;;;;;2.00;1.80;;;18.90;64.70;20.00;101121.00;;;;5046409;28;20208;-40
2021/12/31 00:47:24;;;;;;;2.07;1.60;;;18.90;64.70;19.90;101130.00;;;;5046358;28;20198;-39
2021/12/31 00:49:50;;;;;;;1.83;1.67;;;18.90;64.60;19.90;101122.00;;;;5045876;28;20182;-40
2021/12/31 00:52:15;;;;;;;2.70;1.90;;;18.90;64.60;19.90;101120.00;;;;5045835;28;20182;-39
2021/12/31 00:54:42;;;;;;;3.40;1.70;;;18.90;64.70;19.90;101129.00;;;;5045997;28;20180;-40
2021/12/31 00:57:08;;;;;;;1.70;1.60;;;18.90;64.70;19.90;101115.00;;;;5046776;28;20209;-40
2021/12/31 00:59:34;;;;;;;1.53;1.43;;;18.90;64.70;19.90;101118.00;;;;5046885;28;20166;-40
2021/12/31 01:02:03;;;;;;;1.70;1.60;;;18.90;64.70;19.90;101121.00;;;;5048556;28;20182;-40
2021/12/31 01:04:29;;;;;;;1.90;1.80;;;18.90;64.80;19.70;101126.00;;;;5054051;28;20217;-40
2021/12/31 01:06:57;;;;;;;1.80;1.60;;;18.80;64.70;19.90;101114.00;;;;5051337;28;20209;-40
2021/12/31 01:09:23;;;;;;;1.70;1.60;;;18.80;64.60;19.90;101123.00;;;;5046665;28;20600;-40
2021/12/31 01:11:49;;;;;;;2.20;1.80;;;18.90;64.80;19.90;101117.00;;;;5046249;28;20182;-40
2021/12/31 01:14:26;;;;;;;2.27;1.70;;;18.80;64.70;19.90;101123.00;;;;5046839;28;20201;-40
2021/12/31 01:16:57;;;;;;;1.77;1.67;;;18.80;64.70;19.90;101123.00;;;;5046205;28;20233;-40
2021/12/31 01:21:53;;;;;;;1.90;1.70;;;18.80;64.70;19.80;101127.00;;;;5046386;28;20179;-40
2021/12/31 01:24:22;;;;;;;1.93;1.50;;;18.90;64.70;19.80;101123.00;;;;5047180;28;20177;-40
2021/12/31 01:26:48;;;;;;;1.43;1.33;;;18.80;64.70;19.90;101127.00;;;;5058210;28;20194;-40
2021/12/31 01:29:13;;;;;;;1.83;1.70;;;18.80;64.70;19.80;101128.00;;;;5051118;28;20643;-40
2021/12/31 01:31:39;;;;;;;1.70;1.60;;;18.80;64.70;19.80;101121.00;;;;5046203;28;20181;-40
2021/12/31 01:34:05;;;;;;;2.17;1.53;;;18.80;64.70;19.80;101127.00;;;;5046234;28;20174;-40
2021/12/31 01:36:30;;;;;;;1.80;1.70;;;18.80;65.50;19.80;101133.00;;;;5046036;28;20625;-40
2021/12/31 01:38:56;;;;;;;1.93;1.73;;;18.80;64.70;19.80;101139.00;;;;5045708;28;20213;-40
2021/12/31 01:41:22;;;;;;;1.60;1.50;;;18.80;64.80;19.80;101122.00;;;;5046039;28;20601;-39
2021/12/31 01:43:47;;;;;;;1.60;1.50;;;18.80;64.80;19.80;101125.00;;;;5045841;28;20174;-39
2021/12/31 01:46:13;;;;;;;1.93;1.60;;;18.80;64.70;19.80;101130.00;;;;5045903;28;20252;-40
2021/12/31 01:51:34;;;;;;;1.50;1.40;;;18.70;64.60;19.80;101134.00;;;;5048493;28;20197;-39
2021/12/31 01:54:00;;;;;;;2.43;1.93;;;18.70;64.90;19.80;101125.00;;;;5046728;28;20185;-39
2021/12/31 01:56:26;;;;;;;1.80;1.60;;;18.70;64.70;19.80;101116.00;;;;5045891;28;20682;-41
2021/12/31 01:58:54;;;;;;;1.90;1.77;;;18.80;64.80;19.80;101125.00;;;;5044371;28;20171;-41
2021/12/31 02:01:21;;;;;;;2.50;1.60;;;18.80;64.80;19.80;101119.00;;;;5046006;28;20259;-40
2021/12/31 02:03:47;;;;;;;1.90;1.60;;;18.70;64.70;19.80;101125.00;;;;5046360;28;20330;-40
2021/12/31 02:06:13;;;;;;;1.43;1.33;;;18.70;64.70;19.80;101122.00;;;;5049643;28;20470;-40
2021/12/31 02:08:38;;;;;;;1.50;1.40;;;18.70;64.70;19.80;101115.00;;;;5053009;28;20181;-39
2021/12/31 02:11:04;;;;;;;1.80;1.60;;;18.70;64.70;19.70;101123.00;;;;5058575;28;20159;-40
2021/12/31 02:13:30;;;;;;;1.47;1.37;;;18.70;64.90;19.70;101114.00;;;;5056521;28;20641;-39
2021/12/31 02:15:55;;;;;;;2.00;1.60;;;18.60;64.90;19.70;101112.00;;;;5048629;28;20194;-39
2021/12/31 02:18:21;;;;;;;2.07;1.50;;;18.70;65.00;19.70;101117.00;;;;5049459;28;20166;-40
2021/12/31 02:20:48;;;;;;;1.60;1.50;;;18.70;65.00;19.70;101112.00;;;;5049284;28;20546;-40
2021/12/31 02:23:26;;;;;;;2.13;1.60;;;18.70;65.10;19.70;101110.00;;;;5049916;28;20182;-40
2021/12/31 02:25:52;;;;;;;1.97;1.70;;;18.60;64.90;19.70;101112.00;;;;5049679;28;20229;-40
2021/12/31 02:28:18;;;;;;;1.50;1.40;;;18.70;65.00;19.70;101105.00;;;;5049190;28;20872;-39
2021/12/31 02:30:44;;;;;;;1.63;1.53;;;18.70;65.10;19.70;101113.00;;;;5049742;28;20186;-40
2021/12/31 02:33:10;;;;;;;1.60;1.50;;;18.70;64.90;19.70;101115.00;;;;5059710;28;20181;-41
2021/12/31 02:35:36;;;;;;;2.17;1.60;;;18.70;65.00;19.70;101118.00;;;;5053550;28;20263;-40
2021/12/31 02:38:03;;;;;;;1.67;1.47;;;18.70;64.90;19.70;101114.00;;;;5049262;28;20580;-40
2021/12/31 02:40:29;;;;;;;1.67;1.50;;;18.60;64.90;19.70;101117.00;;;;5049022;28;20607;-41
2021/12/31 02:42:56;;;;;;;1.30;1.30;;;18.60;64.90;19.70;101114.00;;;;5048670;28;20170;-40
2021/12/31 02:45:28;;;;;;;2.37;1.50;;;18.60;65.00;19.70;101118.00;;;;5048367;28;20170;-40
2021/12/31 02:47:55;;;;;;;1.30;1.30;;;18.60;64.90;19.70;101120.00;;;;5048414;28;20633;-40
2021/12/31 02:50:30;;;;;;;1.50;1.40;;;18.60;65.00;19.70;101109.00;;;;5048476;28;20170;-40
2021/12/31 02:52:56;;;;;;;1.70;1.57;;;18.60;65.00;19.60;101114.00;;;;5048620;28;20189;-40
2021/12/31 02:55:21;;;;;;;1.60;1.50;;;18.60;65.20;19.60;101114.00;;;;5045874;28;20645;-40
2021/12/31 02:57:47;;;;;;;1.50;1.40;;;18.60;65.10;19.60;101114.00;;;;5012880;28;20195;-40
2021/12/31 03:00:13;;;;;;;1.60;1.50;;;18.50;65.10;19.60;101105.00;;;;5026646;28;20151;-40
2021/12/31 03:02:39;;;;;;;1.57;1.47;;;18.60;65.20;19.60;101096.00;;;;5027823;28;20171;-40
2021/12/31 03:05:06;;;;;;;1.33;1.23;;;18.50;65.10;19.60;101103.00;;;;5026629;28;20171;-40
2021/12/31 03:07:32;;;;;;;1.50;1.40;;;18.60;65.10;19.60;101108.00;;;;5026588;28;20387;-40
2021/12/31 03:09:58;;;;;;;1.60;1.50;;;18.60;65.20;19.60;101107.00;;;;5010376;28;20632;-40
2021/12/31 03:12:24;;;;;;;1.50;1.40;;;18.50;65.40;19.60;101112.00;;;;5027796;28;20257;-40
2021/12/31 03:14:49;;;;;;;1.60;1.50;;;18.50;65.60;19.60;101102.00;;;;5027556;28;20655;-40
2021/12/31 03:17:15;;;;;;;1.60;1.50;;;18.50;65.50;19.60;101104.00;;;;5009935;28;20198;-40
2021/12/31 03:19:43;;;;;;;1.90;1.63;;;18.50;65.80;19.60;101105.00;;;;5010795;28;20171;-40
2021/12/31 03:22:08;;;;;;;1.70;1.60;;;18.50;65.60;19.60;101107.00;;;;5027937;28;20183;-40
2021/12/31 03:24:34;;;;;;;1.43;1.33;;;18.50;65.60;19.60;101116.00;;;;5034329;28;20190;-39
2021/12/31 03:27:00;;;;;;;1.53;1.43;;;18.50;65.80;19.60;101095.00;;;;5036855;28;20290;-39
2021/12/31 03:29:25;;;;;;;1.60;1.50;;;18.50;65.80;19.60;101105.00;;;;5031263;28;20174;-41
2021/12/31 03:31:52;;;;;;;1.57;1.47;;;18.50;65.70;19.60;101113.00;;;;5028068;28;20186;-41
2021/12/31 03:34:18;;;;;;;1.50;1.40;;;18.50;65.70;19.60;101110.00;;;;5030272;28;20178;-41
2021/12/31 03:36:44;;;;;;;1.70;1.60;;;18.40;65.60;19.60;101019.00;;;;5032810;28;20253;-39
2021/12/31 03:39:10;;;;;;;1.40;1.30;;;18.50;65.60;19.60;101114.00;;;;5030993;28;20640;-40
2021/12/31 03:41:35;;;;;;;1.27;1.17;;;18.40;65.70;19.60;101103.00;;;;5026669;28;20234;-39
2021/12/31 03:44:02;;;;;;;1.43;1.30;;;18.50;65.70;19.60;101091.00;;;;5029961;28;20361;-39
2021/12/31 03:46:28;;;;;;;1.50;1.40;;;18.50;65.60;19.60;101083.00;;;;5026673;28;20440;-40
2021/12/31 03:48:54;;;;;;;1.37;1.27;;;18.40;65.60;19.60;101092.00;;;;5026117;28;20183;-40
2021/12/31 03:51:19;;;;;;;2.30;1.30;;;18.50;65.60;19.60;101088.00;;;;5027090;28;20179;-40
2021/12/31 03:53:45;;;;;;;1.63;1.53;;;18.50;65.90;19.60;101088.00;;;;5026095;28;20183;-40
2021/12/31 03:56:11;;;;;;;1.77;1.50;;;18.50;66.00;19.60;101083.00;;;;5028044;28;20228;-40
2021/12/31 03:58:37;;;;;;;3.20;1.60;;;18.50;66.60;19.60;101083.00;;;;5027908;28;20179;-40
2021/12/31 04:01:03;;;;;;;3.27;1.80;;;18.50;66.10;19.60;101089.00;;;;5034948;28;20571;-40
2021/12/31 04:03:28;;;;;;;3.20;1.47;;;18.50;66.00;19.60;101075.00;;;;5030471;28;20624;-40
2021/12/31 04:05:54;;;;;;;3.30;1.40;;;18.50;65.80;19.50;101077.00;;;;5027031;28;20194;-39
2021/12/31 04:08:20;;;;;;;4.57;1.67;;;18.40;65.70;19.50;101064.00;;;;5027258;28;20179;-39
2021/12/31 04:10:46;;;;;;;2.77;1.47;;;18.50;65.80;19.60;101069.00;;;;5027522;28;20182;-39
2021/12/31 04:13:11;;;;;;;3.43;1.73;;;18.40;65.70;19.50;101064.00;;;;5026662;28;20670;-38
2021/12/31 04:15:37;;;;;;;2.80;1.60;;;18.40;65.60;19.50;101068.00;;;;5031050;28;20337;-41
2021/12/31 04:18:03;;;;;;;4.33;1.70;;;18.40;65.70;19.50;101065.00;;;;5027026;28;20170;-39
2021/12/31 04:20:38;;;;;;;1.67;1.57;;;18.40;65.60;19.50;101066.00;;;;5026978;28;20182;-39
2021/12/31 04:23:28;;;;;;;1.60;1.50;;;18.40;65.60;19.50;101072.00;;;;5027158;28;20531;-41
2021/12/31 04:25:54;;;;;;;2.83;1.63;;;18.40;65.60;19.50;101059.00;;;;5027315;28;20194;-40
2021/12/31 04:28:20;;;;;;;2.87;1.50;;;18.40;65.40;19.50;101065.00;;;;5026869;28;20171;-40
2021/12/31 04:30:46;;;;;;;4.33;1.67;;;18.40;65.50;19.50;101066.00;;;;5026893;28;20671;-40
2021/12/31 04:33:11;;;;;;;4.70;1.60;;;18.40;65.60;19.50;101069.00;;;;5027502;28;20211;-40
2021/12/31 04:35:37;;;;;;;3.90;1.80;;;18.40;66.00;19.40;101072.00;;;;5026546;28;20195;-40
2021/12/31 04:38:03;;;;;;;3.83;1.70;;;18.40;65.60;19.40;101068.00;;;;5026330;28;20265;-40
2021/12/31 04:40:28;;;;;;;1.43;1.33;;;18.40;65.60;19.40;101066.00;;;;5026682;28;20175;-39
2021/12/31 04:42:54;;;;;;;2.10;1.63;;;18.40;65.60;19.50;101066.00;;;;5026374;28;20221;-40
2021/12/31 04:45:20;;;;;;;1.77;1.40;;;18.30;65.40;19.40;101066.00;;;;5026334;28;20175;-40
2021/12/31 04:47:46;;;;;;;1.60;1.50;;;18.30;65.40;19.40;101072.00;;;;5026468;28;20178;-39
2021/12/31 04:50:12;;;;;;;1.67;1.50;;;18.30;65.40;19.40;101070.00;;;;5025731;28;20190;-39
2021/12/31 04:52:38;;;;;;;1.50;1.40;;;18.30;65.40;19.40;101071.00;;;;5026045;28;20260;-40
2021/12/31 04:55:05;;;;;;;3.23;1.73;;;18.30;65.30;19.40;101071.00;;;;5026250;28;20245;-40
2021/12/31 04:57:30;;;;;;;2.73;1.73;;;18.30;65.30;19.40;101070.00;;;;5025855;28;20208;-40
2021/12/31 04:59:56;;;;;;;4.50;1.63;;;18.30;65.30;19.40;101066.00;;;;5025571;28;20179;-40
2021/12/31 05:02:22;;;;;;;4.43;1.57;;;18.30;65.40;19.40;101063.00;;;;5026412;28;20181;-40
2021/12/31 05:04:47;;;;;;;2.37;1.50;;;18.30;65.40;19.40;101059.00;;;;5041446;28;20525;-40
2021/12/31 05:07:13;;;;;;;2.03;1.60;;;18.30;65.40;19.40;101047.00;;;;5041114;28;20419;-40
2021/12/31 05:09:39;;;;;;;2.83;1.70;;;18.40;65.40;19.40;101055.00;;;;5036526;28;20259;-40
2021/12/31 05:12:06;;;;;;;3.43;1.53;;;18.30;65.20;19.40;101052.00;;;;5027133;28;20175;-40
2021/12/31 05:14:31;;;;;;;2.50;1.43;;;18.30;65.30;19.40;101054.00;;;;5025687;28;20200;-40
2021/12/31 05:17:00;;;;;;;1.53;1.43;;;18.30;65.30;19.40;101055.00;;;;5025687;28;20476;-40
2021/12/31 05:19:26;;;;;;;3.70;1.57;;;18.30;65.30;19.40;101068.00;;;;5025543;28;20177;-40
2021/12/31 05:21:52;;;;;;;2.13;1.60;;;18.30;65.30;19.40;101074.00;;;;5025990;28;20178;-40
2021/12/31 05:24:18;;;;;;;1.80;1.57;;;18.30;65.20;19.40;101057.00;;;;5033700;28;20405;-40
2021/12/31 05:26:44;;;;;;;3.53;1.60;;;18.30;65.20;19.40;101062.00;;;;5026585;28;20273;-40
2021/12/31 05:29:10;;;;;;;1.50;1.40;;;18.30;65.20;19.40;101067.00;;;;5024384;28;20241;-41
2021/12/31 05:31:35;;;;;;;1.60;1.50;;;18.30;65.20;19.40;101065.00;;;;5025766;28;20174;-41
2021/12/31 05:34:01;;;;;;;1.80;1.40;;;18.20;65.00;19.30;101061.00;;;;5025565;28;20182;-40
2021/12/31 05:36:27;;;;;;;1.70;1.50;;;18.30;65.20;19.30;101053.00;;;;5025792;28;20261;-41
2021/12/31 05:38:52;;;;;;;1.80;1.60;;;18.30;65.20;19.30;101052.00;;;;5024703;28;20174;-41
2021/12/31 05:41:18;;;;;;;1.87;1.50;;;18.30;65.00;19.30;101056.00;;;;5024749;28;20170;-40
2021/12/31 05:43:44;;;;;;;1.80;1.60;;;18.30;65.10;19.30;101053.00;;;;5025395;28;20178;-40
2021/12/31 05:46:09;;;;;;;2.10;1.60;;;18.20;65.00;19.30;101054.00;;;;5025345;28;20201;-40
2021/12/31 05:48:35;;;;;;;1.97;1.40;;;18.20;65.00;19.30;101060.00;;;;5025145;28;20178;-40
2021/12/31 05:51:01;;;;;;;1.50;1.40;;;18.20;65.00;19.30;101052.00;;;;5025443;28;20178;-40
2021/12/31 05:53:27;;;;;;;2.03;1.53;;;18.20;65.00;19.30;101055.00;;;;5024782;28;20538;-40
2021/12/31 05:55:52;;;;;;;1.60;1.50;;;18.20;65.00;19.30;101060.00;;;;5028427;28;20203;-40
2021/12/31 05:58:18;;;;;;;2.43;1.53;;;18.20;64.90;19.30;101058.00;;;;5025354;28;20170;-40
2021/12/31 06:00:44;;;;;;;2.67;1.60;;;18.20;64.80;19.30;101055.00;;;;5024975;28;20667;-40
2021/12/31 06:03:10;;;;;;;1.40;1.30;;;18.20;64.80;19.30;101057.00;;;;5024985;28;20171;-40
2021/12/31 06:05:36;;;;;;;1.60;1.50;;;18.20;64.80;19.30;101049.00;;;;5025073;28;20449;-40
2021/12/31 06:08:01;;;;;;;2.30;1.63;;;18.20;64.80;19.30;101044.00;;;;5024924;28;20175;-39
2021/12/31 06:10:27;;;;;;;1.40;1.30;;;18.20;64.80;19.20;101042.00;;;;5024944;28;20177;-39
2021/12/31 06:12:58;;;;;;;2.50;1.60;;;18.20;64.80;19.20;101047.00;;;;5044983;28;20404;-41
2021/12/31 06:15:25;;;;;;;1.60;1.50;;;18.20;64.80;19.20;101047.00;;;;5048080;28;20155;-39
2021/12/31 06:17:51;;;;;;;1.73;1.43;;;18.20;64.80;19.20;101054.00;;;;5044614;28;20648;-40
2021/12/31 06:20:17;;;;;;;1.77;1.40;;;18.20;64.80;19.20;101045.00;;;;5044116;28;20219;-40
2021/12/31 06:22:42;;;;;;;1.63;1.43;;;18.20;64.80;19.20;101060.00;;;;5044753;28;20170;-40
2021/12/31 06:25:08;;;;;;;1.77;1.67;;;18.20;64.80;19.20;101056.00;;;;5044861;28;20176;-39
2021/12/31 06:27:34;;;;;;;1.50;1.30;;;18.20;64.80;19.20;101045.00;;;;5044659;28;20558;-40
2021/12/31 06:30:00;;;;;;;1.40;1.30;;;18.10;64.70;19.20;101052.00;;;;5045558;28;20174;-40
2021/12/31 06:32:26;;;;;;;2.63;1.67;;;18.20;64.80;19.20;101054.00;;;;5056289;28;20177;-40
2021/12/31 06:34:52;;;;;;;1.67;1.57;;;18.20;64.80;19.20;101053.00;;;;5054871;28;20410;-40
2021/12/31 06:37:17;;;;;;;1.90;1.70;;;18.20;64.80;19.20;101057.00;;;;5045429;28;20197;-40
2021/12/31 06:39:45;;;;;;;1.50;1.40;;;18.20;64.80;19.20;101046.00;;;;5044855;28;20166;-40
2021/12/31 06:42:11;;;;;;;1.93;1.70;;;18.10;64.70;19.20;101057.00;;;;5060466;28;20253;-39
2021/12/31 06:44:37;;;;;;;1.60;1.50;;;18.10;64.70;19.10;101063.00;;;;5045194;28;20182;-40
2021/12/31 06:47:03;;;;;;;1.53;1.43;;;18.10;64.70;19.20;101063.00;;;;5045103;28;20193;-40
2021/12/31 06:49:30;;;;;;;1.60;1.50;;;18.10;64.60;19.10;101061.00;;;;5044441;28;20163;-41
2021/12/31 06:51:55;;;;;;;1.60;1.50;;;18.10;64.70;19.10;101063.00;;;;5046355;28;20181;-40
2021/12/31 06:54:21;;;;;;;1.60;1.50;;;18.10;64.70;19.10;101074.00;;;;5048055;28;20178;-40
2021/12/31 06:56:47;;;;;;;1.60;1.50;;;18.10;64.80;19.10;101067.00;;;;5048134;28;20197;-40
2021/12/31 06:59:12;;;;;;;1.83;1.67;;;18.10;64.70;19.10;101064.00;;;;5047895;28;20508;-41
2021/12/31 07:01:38;;;;;;;2.97;1.70;;;18.10;64.70;19.10;101077.00;;;;5047593;28;20178;-40
2021/12/31 07:04:04;;;;;;;1.70;1.60;;;18.10;64.70;19.10;101058.00;;;;5047967;28;20638;-40
2021/12/31 07:06:30;;;;;;;1.60;1.50;;;18.10;64.70;19.10;101054.00;;;;5048374;28;20192;-39
2021/12/31 07:08:55;;;;;;;1.60;1.50;;;18.00;64.60;19.10;100966.00;;;;5047811;28;20307;-40
2021/12/31 07:11:22;;;;;;;1.50;1.40;;;18.00;64.60;19.10;101051.00;;;;5048070;28;20228;-39
2021/12/31 07:13:51;;;;;;;1.60;1.50;;;18.00;64.60;19.10;101063.00;;;;5047879;28;20189;-40
2021/12/31 07:16:17;;;;;;;2.03;1.37;;;18.00;64.60;19.10;101061.00;;;;5047594;28;20292;-40
2021/12/31 07:18:43;;;;;;;1.60;1.50;;;18.00;64.60;19.10;101062.00;;;;5047073;28;20174;-40
2021/12/31 07:21:09;;;;;;;1.70;1.60;;;18.00;64.60;19.10;101060.00;;;;5047350;28;20226;-40
2021/12/31 07:23:35;;;;;;;1.83;1.60;;;18.00;64.60;19.10;101067.00;;;;5047889;28;20262;-39
2021/12/31 07:26:00;;;;;;;1.73;1.63;;;17.90;64.50;19.10;101067.00;;;;5048055;28;20201;-39
2021/12/31 07:28:28;;;;;;;1.73;1.60;;;18.00;64.60;19.10;101060.00;;;;5047648;28;21032;-40
2021/12/31 07:30:53;;;;;;;1.80;1.70;;;18.00;64.60;19.10;101065.00;;;;5047300;28;20169;-40
2021/12/31 07:33:21;;;;;;;1.63;1.53;;;18.00;64.60;19.10;101073.00;;;;5047401;28;20554;-40
2021/12/31 07:35:47;;;;;;;1.53;1.43;;;18.00;64.50;19.10;101084.00;;;;5050207;28;20672;-40
2021/12/31 07:38:20;;;;;;;1.70;1.60;;;18.00;64.60;19.00;101065.00;;;;5047755;28;20170;-40
2021/12/31 07:40:47;;;;;;;1.53;1.43;;;18.00;64.60;19.00;101061.00;;;;5047997;28;20212;-40
2021/12/31 07:43:12;;;;;;;2.07;1.60;;;17.90;64.30;19.00;101062.00;;;;5047463;28;20182;-39
2021/12/31 07:45:38;;;;;;;1.50;1.40;;;18.00;64.40;19.00;101072.00;;;;5047337;28;20605;-40
2021/12/31 07:48:04;;;;;;;1.70;1.60;;;18.00;64.30;19.00;101062.00;;;;5047741;28;20167;-39
2021/12/31 07:50:30;;;;;;;1.60;1.50;;;18.00;64.50;19.00;101079.00;;;;5048048;28;20187;-41
2021/12/31 07:52:56;;;;;;;1.53;1.40;;;18.00;64.50;19.00;101073.00;;;;5048204;28;20223;-40
2021/12/31 07:55:21;;;;;;;1.73;1.63;;;18.00;64.40;19.00;101075.00;;;;5050886;28;20723;-40
2021/12/31 07:57:47;;;;;;;1.60;1.50;;;18.00;64.40;19.00;101074.00;;;;5051834;28;20212;-39
2021/12/31 08:00:13;;;;;;;1.70;1.60;;;17.90;64.30;19.00;101079.00;;;;5049548;28;20168;-40
2021/12/31 08:02:39;;;;;;;1.60;1.50;;;17.90;64.30;19.00;101083.00;;;;5046826;28;20461;-40
2021/12/31 08:05:05;;;;;;;2.17;1.80;;;17.90;64.30;19.00;101083.00;;;;5048873;28;20166;-40
2021/12/31 08:07:31;;;;;;;2.50;1.80;;;17.90;64.20;19.00;101082.00;;;;5051835;28;20252;-40
2021/12/31 08:09:56;;;;;;;1.73;1.63;;;17.90;64.30;18.90;101086.00;;;;5050700;28;20172;-40
2021/12/31 08:12:22;;;;;;;1.70;1.60;;;17.90;64.50;18.90;101085.00;;;;5046703;28;20368;-40
2021/12/31 08:14:48;;;;;;;1.57;1.47;;;17.90;64.20;18.90;101087.00;;;;5047337;28;20181;-40
2021/12/31 08:17:14;;;;;;;1.87;1.77;;;17.90;65.00;18.90;101077.00;;;;5053599;28;20464;-40
2021/12/31 08:19:39;;;;;;;1.70;1.60;;;17.90;64.20;18.90;101086.00;;;;5053541;28;20239;-40
2021/12/31 08:22:05;;;;;;;1.40;1.30;;;17.90;64.10;18.90;101084.00;;;;5046769;28;20724;-40
2021/12/31 08:24:31;;;;;;;1.80;1.70;;;17.90;64.10;18.90;101086.00;;;;5047486;28;20169;-39
2021/12/31 08:26:57;;;;;;;1.80;1.70;;;17.90;64.20;18.90;101089.00;;;;5046827;28;20207;-45
2021/12/31 08:29:22;;;;;;;1.50;1.40;;;17.90;64.10;18.90;101083.00;;;;5046443;28;20224;-40
2021/12/31 08:31:48;;;;;;;1.80;1.70;;;17.90;64.30;18.90;101082.00;;;;5046975;28;20518;-40
2021/12/31 08:34:14;;;;;;;1.70;1.57;;;17.80;64.10;18.90;101095.00;;;;5047263;28;20237;-39
2021/12/31 08:36:39;;;;;;;1.57;1.47;;;17.90;64.20;18.90;101103.00;;;;5046776;28;20550;-39
2021/12/31 08:39:07;;;;;;;2.00;1.80;;;17.80;63.90;18.90;101099.00;;;;5046481;28;20383;-39
2021/12/31 08:41:34;;;;;;;1.60;1.50;;;17.90;64.10;18.90;101102.00;;;;5046990;28;20180;-39
2021/12/31 08:44:00;;;;;;;1.77;1.67;;;17.80;63.90;18.90;101088.00;;;;5047546;28;20677;-39
2021/12/31 08:46:25;;;;;;;2.37;1.70;;;17.80;64.10;18.90;101086.00;;;;5047324;28;20192;-40
2021/12/31 08:48:51;;;;;;;2.87;1.67;;;17.80;64.30;18.90;101091.00;;;;5047319;28;20183;-40
2021/12/31 08:51:17;;;;;;;3.10;1.80;;;17.80;64.30;18.90;101091.00;;;;5033352;28;20585;-44
2021/12/31 08:53:43;;;;;;;6.90;1.90;;;17.90;64.40;18.90;101081.00;;;;5030618;28;20339;-39
2021/12/31 08:56:08;;;;;;;7.57;1.80;;;17.80;64.30;18.90;101082.00;;;;5026445;28;20205;-41
2021/12/31 08:58:34;;;;;;;10.13;1.93;;;17.90;64.50;18.90;101083.00;;;;5026045;28;20616;-39
2021/12/31 09:01:00;;;;;;;11.07;2.20;;;17.90;64.60;18.90;101087.00;;;;5041756;28;20505;-40
2021/12/31 09:03:26;;;;;;;9.27;2.20;;;17.90;64.50;18.60;101090.00;;;;5045765;28;20660;-40
2021/12/31 09:05:52;;;;;;;4.13;2.07;;;17.90;64.60;18.60;101091.00;;;;5045468;28;20186;-39
2021/12/31 09:08:18;;;;;;;3.47;1.80;;;17.90;64.50;18.90;101090.00;;;;5045950;28;20221;-39
2021/12/31 09:10:44;;;;;;;3.73;1.77;;;17.90;64.50;18.90;101083.00;;;;5045691;28;20725;-40
2021/12/31 09:13:09;;;;;;;4.47;1.90;;;17.90;64.50;18.90;101083.00;;;;5045757;28;20243;-40
2021/12/31 09:15:35;;;;;;;3.60;1.80;;;17.90;64.50;18.90;101089.00;;;;5048536;28;20193;-40
2021/12/31 09:18:01;;;;;;;4.30;1.90;;;17.90;64.80;18.90;101096.00;;;;5047166;28;20216;-40
2021/12/31 09:20:28;;;;;;;4.33;2.00;;;17.90;64.50;18.90;101093.00;;;;5045378;28;20552;-39
2021/12/31 09:22:54;;;;;;;2.50;1.67;;;17.90;64.30;18.90;101085.00;;;;5045595;28;20177;-39
2021/12/31 09:25:20;;;;;;;2.40;1.80;;;17.90;64.50;18.90;101085.00;;;;5045757;28;20215;-40
2021/12/31 09:27:46;;;;;;;3.43;1.80;;;17.90;64.40;18.90;101103.00;;;;5045541;28;20178;-39
2021/12/31 09:30:12;;;;;;;2.00;1.60;;;17.90;64.30;18.90;101104.00;;;;5045451;28;20169;-39
2021/12/31 09:32:38;;;;;;;2.00;1.67;;;17.90;64.30;18.90;101107.00;;;;5045750;28;20169;-39
2021/12/31 09:35:06;;;;;;;1.60;1.50;;;17.90;64.20;18.90;101099.00;;;;5045493;28;20201;-39
2021/12/31 09:37:32;;;;;;;1.90;1.77;;;17.90;64.20;18.90;101102.00;;;;5045410;28;20293;-40
2021/12/31 09:39:58;;;;;;;2.80;1.60;;;17.90;64.10;18.90;101095.00;;;;5045502;28;20180;-40
2021/12/31 09:42:24;;;;;;;2.10;1.90;;;17.90;64.10;18.90;101088.00;;;;5045352;28;20173;-39
2021/12/31 09:44:50;;;;;;;2.77;1.50;;;17.90;64.10;18.90;101069.00;;;;5045253;28;20163;-39
2021/12/31 09:47:16;;;;;;;1.90;1.70;;;17.90;64.00;18.80;101086.00;;;;5044128;28;20221;-39
2021/12/31 09:49:42;;;;;;;1.63;1.53;;;18.00;64.00;18.90;101084.00;;;;5047992;28;20183;-40
2021/12/31 09:52:10;;;;;;;5.20;1.80;;;18.00;64.10;18.80;101088.00;;;;5051016;28;20220;-40
2021/12/31 09:54:39;;;;;;;3.77;1.70;;;18.00;64.00;18.90;101090.00;;;;5048812;28;20170;-39
2021/12/31 09:57:06;;;;;;;2.40;1.70;;;18.00;64.10;18.90;101090.00;;;;5057512;28;20971;-40
2021/12/31 09:59:32;;;;;;;2.07;1.60;;;18.00;63.90;18.90;101082.00;;;;5045616;28;20177;-39
2021/12/31 10:01:58;;;;;;;1.77;1.67;;;18.00;63.90;18.90;101099.00;;;;5044855;28;20190;-39
2021/12/31 10:04:23;;;;;;;2.23;1.60;;;18.00;64.10;18.80;101082.00;;;;5044506;28;20162;-40
2021/12/31 10:07:12;;;;;;;2.13;1.70;;;18.00;64.30;18.80;101073.00;;;;5044153;28;20221;-40
2021/12/31 10:09:40;;;;;;;2.80;1.70;;;18.00;63.90;18.80;101086.00;;;;5044932;28;20565;-41
2021/12/31 10:12:07;;;;;;;2.47;1.80;;;18.00;63.80;18.90;101072.00;;;;5045156;28;20181;-38
2021/12/31 10:14:37;;;;;;;1.87;1.70;;;18.00;64.20;18.80;101065.00;;;;5045188;28;20194;-39
2021/12/31 10:17:05;;;;;;;2.40;1.50;;;18.00;64.10;18.80;101075.00;;;;5044811;28;20205;-39
2021/12/31 10:19:30;;;;;;;1.70;1.60;;;18.00;63.90;18.90;101071.00;;;;5043787;28;20201;-39
2021/12/31 10:21:56;;;;;;;1.70;1.60;;;18.00;63.90;18.90;101075.00;;;;5044937;28;20165;-40
2021/12/31 10:24:38;;;;;;;1.90;1.60;;;18.00;64.10;18.90;101071.00;;;;5044898;28;20199;-39
2021/12/31 10:27:11;;;;;;;1.63;1.50;;;18.00;63.90;18.90;101077.00;;;;5048179;28;20194;-39
2021/12/31 10:29:57;;;;;;;1.90;1.80;;;18.00;63.80;18.90;101087.00;;;;5048910;28;20259;-39
2021/12/31 10:32:29;;;;;;;1.67;1.57;;;18.00;63.80;18.90;101089.00;;;;5039749;28;20315;-40
2021/12/31 10:35:09;;;;;;;2.53;1.70;;;18.10;63.90;18.40;101094.00;;;;5040219;28;20167;-40
2021/12/31 10:37:52;;;;;;;3.03;1.60;;;18.10;64.10;18.80;101084.00;;;;5047337;28;20200;-39
2021/12/31 10:40:43;;;;;;;2.80;1.73;;;18.00;63.90;18.90;101089.00;;;;5048275;28;20658;-39
2021/12/31 10:43:21;;;;;;;1.70;1.57;;;18.00;63.90;18.80;101079.00;;;;5048759;28;20177;-39
2021/12/31 10:46:09;;;;;;;2.07;1.70;;;18.10;64.60;18.90;101095.00;;;;5048396;28;20696;-38
2021/12/31 10:48:52;;;;;;;5.10;1.77;;;18.10;64.30;18.80;101106.00;;;;5048594;28;20173;-39
2021/12/31 10:51:42;;;;;;;6.10;1.67;;;18.20;64.40;18.80;101111.00;;;;5047921;28;20246;-40